Terminal Aerodrome Forecast
Issued by NWS

Home | Current Version | Previous Version | Graphics & Text | Print | Product List | Glossary On
Versions: 1 2 3 4 5 6 7 8 9 10 11 12 13 14 15 16 17 18 19 20 21 22 23 24 25 26 27
000
FTUS43 KMPX 291500 AAA
TAFAXN
TAF AMD
KAXN 291501Z 2915/3012 04010KT 5SM BR BKN005 OVC010
     FM291630 05010KT P6SM SCT007 OVC015
     FM292000 08010KT P6SM SCT020 BKN035
     FM300000 09007KT P6SM SCT010
     FM300900 11009KT 6SM BR BKN004=

USA.gov is the U.S. government's official web portal to all federal, state and local government web resources and services.